Flight Track Log - Related Links

Times and Time Zones

All times are in EDT time to prevent confusion due to time zone crossing. See the SWA655 flight status page for this flight to view local times or setup timezone preferences in your user account.

Time Position Orientation Groundspeed Altitude Reporting Facility
EDT Latitude Longitude Course Direction KTS MPH feet Rate Location/Type
Tue 05:00:33 PM 37.6333 -122.3667 202° Southwest 140 161 1,400  Level Northern Cal TRACON
Tue 05:01:33 PM 37.6833 -122.3667 360° North 196 226 5,700 4,158 Climbing Northern Cal TRACON
Tue 05:02:27 PM 37.6667 -122.4333 252° West 273 314 9,300 3,766 Climbing Northern Cal TRACON
Tue 05:03:07 PM 37.6158 -122.4083 159° South 266 306 11,600 2,706 Climbing Oakland Center
Tue 05:04:09 PM 37.5492 -122.3236 135° Southeast 339 390 13,900 3,024 Climbing Oakland Center
Tue 05:05:10 PM 37.4733 -122.2239 134° Southeast 390 449 17,800 3,639 Climbing Oakland Center
Tue 05:06:00 PM 37.5661 -122.4170 202° Southwest  Level FlightAware Approximate
Tue 05:06:11 PM 37.3903 -122.1183 135° Southeast 419 482 21,300  Level Oakland Center
Tue 05:07:12 PM 37.3047 -122.0089 134° Southeast 437 503 24,500 2,951 Climbing Oakland Center
Tue 05:08:13 PM 37.2144 -121.8944 135° Southeast 459 528 27,300 2,754 Climbing Oakland Center
Tue 05:09:14 PM 37.1089 -121.7619 135° Southeast 475 547 30,100 2,607 Climbing Oakland Center
Tue 05:10:15 PM 37.0253 -121.6583 135° Southeast 483 556 32,600 1,426 Climbing Oakland Center
Tue 05:11:16 PM 36.9111 -121.5167 135° Southeast 485 558 33,000 197 Climbing Oakland Center
Tue 05:12:17 PM 36.8142 -121.3925 134° Southeast 499 574 33,000  Level Oakland Center
Tue 05:13:19 PM 36.7089 -121.2656 136° Southeast 504 580 33,000  Level Oakland Center
Tue 05:14:20 PM 36.6097 -121.1417 135° Southeast 504 580 33,000  Level Oakland Center
Tue 05:15:21 PM 36.5097 -121.0186 135° Southeast 506 582 33,000  Level Oakland Center
Tue 05:16:22 PM 36.4092 -120.8958 135° Southeast 507 583 33,000  Level Oakland Center
Tue 05:17:23 PM 36.3089 -120.7725 135° Southeast 508 585 33,000  Level Oakland Center
Tue 05:18:24 PM 36.2058 -120.6508 136° Southeast 511 588 33,000  Level Oakland Center
Tue 05:19:25 PM 36.1050 -120.5269 135° Southeast 511 588 33,000  Level Oakland Center
Tue 05:20:26 PM 36.0028 -120.4025 135° Southeast 515 593 33,000  Level Oakland Center
Tue 05:21:28 PM 35.9011 -120.2811 136° Southeast 508 585 33,000  Level Oakland Center
Tue 05:22:29 PM 35.7978 -120.1589 136° Southeast 512 589 33,000  Level Oakland Center
Tue 05:23:30 PM 35.6953 -120.0361 136° Southeast 510 587 33,000  Level Oakland Center
Tue 05:24:31 PM 35.5828 -119.9228 141° Southeast 522 601 33,000  Level Oakland Center
Tue 05:25:32 PM 35.4631 -119.8192 145° Southeast 522 601 33,000  Level Oakland Center
Tue 05:26:33 PM 35.3436 -119.7169 145° Southeast 522 601 33,000  Level Oakland Center
Tue 05:27:34 PM 35.2244 -119.6147 145° Southeast 522 601 33,000  Level Oakland Center
Tue 05:27:49 PM 35.1772 -119.5742 145° Southeast 522 601 33,000 -1,403 Level Los Angeles Center
Tue 05:28:51 PM 35.0583 -119.4731 145° Southeast 521 600 31,200 -1,694 Descending Los Angeles Center
Tue 05:29:53 PM 34.9431 -119.3739 145° Southeast 510 587 29,500 -2,146 Descending Los Angeles Center
Tue 05:30:54 PM 34.8297 -119.2783 145° Southeast 499 574 26,800 -3,024 Descending Los Angeles Center
Tue 05:31:56 PM 34.7197 -119.1839 145° Southeast 486 559 23,300 -3,290 Descending Los Angeles Center
Tue 05:32:58 PM 34.6008 -119.0881 146° Southeast 499 574 20,000 -2,855 Descending Los Angeles Center
Tue 05:34:00 PM 34.4928 -118.9994 146° Southeast 463 533 17,400 -2,903 Descending Los Angeles Center
Tue 05:35:02 PM 34.3694 -118.8936 145° Southeast 450 518 14,000 -2,274 Descending Los Angeles Center
Tue 05:36:04 PM 34.2633 -118.8478 160° South 403 464 12,700 -968 Descending Los Angeles Center
Tue 05:37:06 PM 34.1667 -118.8128 163° South 359 413 12,000 -1,016 Descending Los Angeles Center
Tue 05:38:08 PM 34.0858 -118.7425 144° Southeast 359 413 10,600 -968 Descending Los Angeles Center
Tue 05:39:10 PM 34.0592 -118.6403 107° East 300 345 10,000 -1,016 Descending Los Angeles Center
Tue 05:40:12 PM 34.0350 -118.5508 108° East 284 327 8,500 -1,452 Descending Los Angeles Center
Tue 05:41:14 PM 34.0117 -118.4608 107° East 282 325 7,000 -1,306 Descending Los Angeles Center
Tue 05:42:16 PM 34.0211 -118.3756 82° East 254 292 5,800 -1,452 Descending Los Angeles Center
Tue 05:43:18 PM 34.0272 -118.2928 85° East 247 284 4,000 -1,403 Descending Los Angeles Center
Tue 05:44:20 PM 33.9972 -118.2439 126° Southeast 243 280 2,900 -919 Descending Los Angeles Center
Tue 05:45:22 PM 33.9647 -118.2903 230° Southwest 202 232 2,100 -774 Descending Los Angeles Center
Tue 05:46:24 PM 33.9586 -118.3367 261° West 164 189 1,300 -677 Descending Los Angeles Center
Tue 05:47:26 PM 33.9564 -118.3742 266° West 134 154 700 -532 Descending Los Angeles Center
Tue 05:48:28 PM 33.9514 -118.4147 262° West 122 140 200 -484 Descending Los Angeles Center
Tue 05:50:00 PM 33.9425 -118.4081 228° Southwest  Level Estimated
Tue 05:57:00 PM 33.9425 -118.4081 228° Southwest  Level Estimated

Login

Don't have an account? Register now (free) for customized features, flight alerts, and more!